createdAt,value
2023-05-21T00:00:42.337Z,14.49
2023-05-21T00:01:42.333Z,14.49
2023-05-21T00:02:42.359Z,14.55
2023-05-21T00:03:42.407Z,14.49
2023-05-21T00:04:42.300Z,14.48
2023-05-21T00:05:42.338Z,14.43
2023-05-21T00:06:42.265Z,14.49
2023-05-21T00:07:42.272Z,14.48
2023-05-21T00:08:42.285Z,14.33
2023-05-21T00:09:42.223Z,14.45
2023-05-21T00:10:42.213Z,14.45
2023-05-21T00:11:42.234Z,14.48
2023-05-21T00:12:42.193Z,14.48
2023-05-21T00:13:42.191Z,14.40
2023-05-21T00:14:42.185Z,14.45
2023-05-21T00:15:42.167Z,14.43
2023-05-21T00:16:42.194Z,14.44
2023-05-21T00:17:42.236Z,14.41
2023-05-21T00:18:42.239Z,14.22
2023-05-21T00:19:42.123Z,14.33
2023-05-21T00:20:42.128Z,14.18
2023-05-21T00:21:42.104Z,14.26
2023-05-21T00:22:42.086Z,14.19
2023-05-21T00:23:42.069Z,14.20
2023-05-21T00:24:42.077Z,14.18
2023-05-21T00:25:42.060Z,14.20
2023-05-21T00:26:42.034Z,14.15
2023-05-21T00:27:42.025Z,14.05
2023-05-21T00:28:42.017Z,14.08
2023-05-21T00:29:44.137Z,14.15
2023-05-21T00:30:42.016Z,13.87
2023-05-21T00:31:42.108Z,13.91
2023-05-21T00:32:41.982Z,13.80
2023-05-21T00:33:41.938Z,13.94
2023-05-21T00:34:41.955Z,13.87
2023-05-21T00:35:41.961Z,13.80
2023-05-21T00:36:41.921Z,13.82
2023-05-21T00:37:41.917Z,13.78
2023-05-21T00:38:41.913Z,13.82
2023-05-21T00:39:41.898Z,13.87
2023-05-21T00:40:41.893Z,13.87
2023-05-21T00:41:41.870Z,13.95
2023-05-21T00:42:41.866Z,13.79
2023-05-21T00:43:41.838Z,13.82
2023-05-21T00:44:41.840Z,13.94
2023-05-21T00:45:41.885Z,13.94
2023-05-21T00:46:41.838Z,14.05
2023-05-21T00:47:41.857Z,13.97
2023-05-21T00:48:41.792Z,14.01
2023-05-21T00:49:41.779Z,14.03
2023-05-21T00:50:41.761Z,13.98
2023-05-21T00:51:41.767Z,14.07
2023-05-21T00:52:41.767Z,14.01
2023-05-21T00:53:41.740Z,14.11
2023-05-21T00:54:41.720Z,14.11
2023-05-21T00:55:41.720Z,14.15
2023-05-21T00:56:41.677Z,14.05
2023-05-21T00:57:41.731Z,14.07
2023-05-21T00:58:41.697Z,13.98
2023-05-21T00:59:41.643Z,14.11
2023-05-21T01:00:41.637Z,14.05
2023-05-21T01:01:41.834Z,14.13
2023-05-21T01:02:41.722Z,14.18
2023-05-21T01:03:41.717Z,14.11
2023-05-21T01:04:41.623Z,14.12
2023-05-21T01:05:41.580Z,14.12
2023-05-21T01:06:41.591Z,14.16
2023-05-21T01:07:41.697Z,14.05
2023-05-21T01:08:41.570Z,14.08
2023-05-21T01:09:41.536Z,14.03
2023-05-21T01:10:41.533Z,14.03
2023-05-21T01:11:41.553Z,14.04
2023-05-21T01:12:41.498Z,14.08
2023-05-21T01:13:41.543Z,14.19
2023-05-21T01:14:41.512Z,14.19
2023-05-21T01:15:41.479Z,14.19
2023-05-21T01:16:41.539Z,14.23
2023-05-21T01:17:41.607Z,14.19
2023-05-21T01:18:41.507Z,14.30
2023-05-21T01:19:41.477Z,14.28
2023-05-21T01:20:41.419Z,14.20
2023-05-21T01:21:41.459Z,14.33
2023-05-21T01:22:41.418Z,14.25
2023-05-21T01:23:41.374Z,14.25
2023-05-21T01:24:41.379Z,14.30
2023-05-21T01:25:41.394Z,14.28
2023-05-21T01:26:41.364Z,14.31
2023-05-21T01:27:41.349Z,14.28
2023-05-21T01:28:41.365Z,14.22
2023-05-21T01:29:41.304Z,14.22
2023-05-21T01:30:41.297Z,14.25
2023-05-21T01:31:41.324Z,14.26
2023-05-21T01:32:41.338Z,14.23
2023-05-21T01:33:41.309Z,14.26
2023-05-21T01:34:41.275Z,14.20
2023-05-21T01:35:41.265Z,14.12
2023-05-21T01:36:41.215Z,14.04
2023-05-21T01:37:41.258Z,13.86
2023-05-21T01:38:41.227Z,13.83
2023-05-21T01:39:41.186Z,13.83
2023-05-21T01:40:41.198Z,13.70
2023-05-21T01:41:41.198Z,13.73
2023-05-21T01:42:41.183Z,13.67
2023-05-21T01:43:41.151Z,13.60
2023-05-21T01:44:41.166Z,13.64
2023-05-21T01:45:41.124Z,13.58
2023-05-21T01:46:41.215Z,13.52
2023-05-21T01:47:41.240Z,13.62
2023-05-21T01:48:41.105Z,13.62
2023-05-21T01:49:41.068Z,13.60
2023-05-21T01:50:41.114Z,13.52
2023-05-21T01:51:41.114Z,13.61
2023-05-21T01:52:41.061Z,13.52
2023-05-21T01:53:41.043Z,13.61
2023-05-21T01:54:41.053Z,13.57
2023-05-21T01:55:41.058Z,13.57
2023-05-21T01:56:41.030Z,13.58
2023-05-21T01:57:40.994Z,13.62
2023-05-21T01:58:40.991Z,13.60
2023-05-21T01:59:41.012Z,13.50
2023-05-21T02:00:40.964Z,13.62
2023-05-21T02:01:41.042Z,13.61
2023-05-21T02:02:40.995Z,13.55
2023-05-21T02:03:40.987Z,13.60
2023-05-21T02:04:40.916Z,13.60
2023-05-21T02:05:40.944Z,13.55
2023-05-21T02:06:40.907Z,13.54
2023-05-21T02:07:40.893Z,13.64
2023-05-21T02:08:40.894Z,13.68
2023-05-21T02:09:40.865Z,13.65
2023-05-21T02:10:40.871Z,13.70
2023-05-21T02:11:40.878Z,13.75
2023-05-21T02:12:40.867Z,13.67
2023-05-21T02:13:40.839Z,13.65
2023-05-21T02:14:40.814Z,13.76
2023-05-21T02:15:40.804Z,13.80
2023-05-21T02:16:40.805Z,13.73
2023-05-21T02:17:40.816Z,13.65
2023-05-21T02:18:40.777Z,13.57
2023-05-21T02:19:40.749Z,13.55
2023-05-21T02:20:40.742Z,13.47
2023-05-21T02:21:40.753Z,13.45
2023-05-21T02:22:40.752Z,13.40
2023-05-21T02:23:40.696Z,13.39
2023-05-21T02:24:40.745Z,13.36
2023-05-21T02:25:40.781Z,13.28
2023-05-21T02:26:40.673Z,13.21
2023-05-21T02:27:40.691Z,13.20
2023-05-21T02:28:40.648Z,13.13
2023-05-21T02:29:40.617Z,13.24
2023-05-21T02:30:40.632Z,13.16
2023-05-21T02:31:40.633Z,13.08
2023-05-21T02:32:40.591Z,13.09
2023-05-21T02:33:40.698Z,13.06
2023-05-21T02:34:40.575Z,13.06
2023-05-21T02:35:40.547Z,13.05
2023-05-21T02:36:40.567Z,12.99
2023-05-21T02:37:40.616Z,12.88
2023-05-21T02:38:40.537Z,12.95
2023-05-21T02:39:40.497Z,12.90
2023-05-21T02:40:40.542Z,12.83
2023-05-21T02:41:40.501Z,12.88
2023-05-21T02:42:40.573Z,12.88
2023-05-21T02:43:40.508Z,13.01
2023-05-21T02:44:40.477Z,12.90
2023-05-21T02:45:40.446Z,12.91
2023-05-21T02:46:40.447Z,12.87
2023-05-21T02:47:40.467Z,12.83
2023-05-21T02:48:40.410Z,12.93
2023-05-21T02:49:40.452Z,12.99
2023-05-21T02:50:40.397Z,12.94
2023-05-21T02:51:40.359Z,13.01
2023-05-21T02:52:40.368Z,12.81
2023-05-21T02:53:40.390Z,12.94
2023-05-21T02:54:40.352Z,12.91
2023-05-21T02:55:40.326Z,12.78
2023-05-21T02:56:40.343Z,12.90
2023-05-21T02:57:40.327Z,12.83
2023-05-21T02:58:40.326Z,12.76
2023-05-21T02:59:40.288Z,12.86
2023-05-21T03:00:40.278Z,12.90
2023-05-21T03:01:40.323Z,12.83
2023-05-21T03:02:40.340Z,12.83
2023-05-21T03:03:40.251Z,12.86
2023-05-21T03:04:40.291Z,12.87
2023-05-21T03:05:40.216Z,12.84
2023-05-21T03:06:40.208Z,12.83
2023-05-21T03:07:40.220Z,12.87
2023-05-21T03:08:40.204Z,12.90
2023-05-21T03:09:40.155Z,12.87
2023-05-21T03:10:40.183Z,12.80
2023-05-21T03:11:40.170Z,12.88
2023-05-21T03:12:40.131Z,12.91
2023-05-21T03:13:40.309Z,12.86
2023-05-21T03:14:40.119Z,12.93
2023-05-21T03:15:40.120Z,12.88
2023-05-21T03:16:40.132Z,12.87
2023-05-21T03:17:40.157Z,12.90
2023-05-21T03:18:40.081Z,12.88
2023-05-21T03:19:40.061Z,12.75
2023-05-21T03:20:40.087Z,12.81
2023-05-21T03:21:40.036Z,12.87
2023-05-21T03:22:40.033Z,12.84
2023-05-21T03:23:40.045Z,12.88
2023-05-21T03:24:40.027Z,12.87
2023-05-21T03:25:39.996Z,12.76
2023-05-21T03:26:39.996Z,12.81
2023-05-21T03:27:39.994Z,12.93
2023-05-21T03:28:39.981Z,12.86
2023-05-21T03:29:39.971Z,12.90
2023-05-21T03:30:39.951Z,12.90
2023-05-21T03:31:39.971Z,12.87
2023-05-21T03:32:39.982Z,12.91
2023-05-21T03:33:39.895Z,12.87
2023-05-21T03:34:39.920Z,12.94
2023-05-21T03:35:39.894Z,12.90
2023-05-21T03:36:40.874Z,12.94
2023-05-21T03:37:39.893Z,12.90
2023-05-21T03:38:39.851Z,12.90
2023-05-21T03:39:39.849Z,12.88
2023-05-21T03:40:39.826Z,12.93
2023-05-21T03:41:39.849Z,12.94
2023-05-21T03:42:39.808Z,13.02
2023-05-21T03:43:39.773Z,12.95
2023-05-21T03:44:39.816Z,12.93
2023-05-21T03:45:40.988Z,12.98
2023-05-21T03:46:39.782Z,13.02
2023-05-21T03:47:39.812Z,12.95
2023-05-21T03:48:39.767Z,13.11
2023-05-21T03:49:39.707Z,13.02
2023-05-21T03:50:39.741Z,13.03
2023-05-21T03:51:39.744Z,13.08
2023-05-21T03:52:39.695Z,12.95
2023-05-21T03:53:39.690Z,13.08
2023-05-21T03:54:39.691Z,13.08
2023-05-21T03:55:39.642Z,13.08
2023-05-21T03:56:39.659Z,13.08
2023-05-21T03:57:39.650Z,13.08
2023-05-21T03:58:39.636Z,13.17
2023-05-21T03:59:39.605Z,13.13
2023-05-21T04:00:39.636Z,13.20
2023-05-21T04:01:39.601Z,13.40
2023-05-21T04:02:39.695Z,13.33
2023-05-21T04:03:40.854Z,13.31
2023-05-21T04:04:39.643Z,13.43
2023-05-21T04:05:39.589Z,13.54
2023-05-21T04:06:39.531Z,13.49
2023-05-21T04:07:39.498Z,13.49
2023-05-21T04:08:39.526Z,13.52
2023-05-21T04:09:39.486Z,13.50
2023-05-21T04:10:39.509Z,13.58
2023-05-21T04:11:39.497Z,13.58
2023-05-21T04:12:39.509Z,13.60
2023-05-21T04:13:39.443Z,13.68
2023-05-21T04:14:39.453Z,13.70
2023-05-21T04:15:39.605Z,13.67
2023-05-21T04:16:39.421Z,13.79
2023-05-21T04:17:39.453Z,13.75
2023-05-21T04:18:39.433Z,13.78
2023-05-21T04:19:39.461Z,13.80
2023-05-21T04:20:39.367Z,13.80
2023-05-21T04:21:39.369Z,13.78
2023-05-21T04:22:39.352Z,13.76
2023-05-21T04:23:39.325Z,13.75
2023-05-21T04:24:39.397Z,13.71
2023-05-21T04:25:39.326Z,13.78
2023-05-21T04:26:39.285Z,13.85
2023-05-21T04:27:39.304Z,13.91
2023-05-21T04:28:39.282Z,13.87
2023-05-21T04:29:39.254Z,13.91
2023-05-21T04:30:39.254Z,13.83
2023-05-21T04:31:39.274Z,13.79
2023-05-21T04:32:39.242Z,13.78
2023-05-21T04:33:39.231Z,13.82
2023-05-21T04:34:39.239Z,13.87
2023-05-21T04:35:39.178Z,13.94
2023-05-21T04:36:39.181Z,13.95
2023-05-21T04:37:39.179Z,14.00
2023-05-21T04:38:39.156Z,14.01
2023-05-21T04:39:39.129Z,14.04
2023-05-21T04:40:39.158Z,14.07
2023-05-21T04:41:39.112Z,14.01
2023-05-21T04:42:39.114Z,14.15
2023-05-21T04:43:39.113Z,14.12
2023-05-21T04:44:39.112Z,14.11
2023-05-21T04:45:39.117Z,14.18
2023-05-21T04:46:41.577Z,14.13
2023-05-21T04:47:39.116Z,14.13
2023-05-21T04:48:39.030Z,14.13
2023-05-21T04:49:39.089Z,14.11
2023-05-21T04:50:39.052Z,14.18
2023-05-21T04:51:38.999Z,14.22
2023-05-21T04:52:38.996Z,14.31
2023-05-21T04:53:39.015Z,14.37
2023-05-21T04:54:38.975Z,14.25
2023-05-21T04:55:38.952Z,14.40
2023-05-21T04:56:38.989Z,14.41
2023-05-21T04:57:38.949Z,14.41
2023-05-21T04:58:38.959Z,14.52
2023-05-21T04:59:38.935Z,14.49
2023-05-21T05:00:38.950Z,14.49
2023-05-21T05:01:38.897Z,14.48
2023-05-21T05:02:38.930Z,14.40
2023-05-21T05:03:38.921Z,14.52
2023-05-21T05:04:38.876Z,14.48
2023-05-21T05:05:39.120Z,14.41
2023-05-21T05:06:38.852Z,14.55
2023-05-21T05:07:38.846Z,14.55
2023-05-21T05:08:38.810Z,14.71
2023-05-21T05:09:38.807Z,14.73
2023-05-21T05:10:38.788Z,14.77
2023-05-21T05:11:38.818Z,14.77
2023-05-21T05:12:38.752Z,14.90
2023-05-21T05:13:38.793Z,14.93
2023-05-21T05:14:38.756Z,14.94
2023-05-21T05:15:38.863Z,15.04
2023-05-21T05:16:38.737Z,14.94
2023-05-21T05:17:38.727Z,14.96
2023-05-21T05:18:38.734Z,15.12
2023-05-21T05:19:38.730Z,15.11
2023-05-21T05:20:38.704Z,14.99
2023-05-21T05:21:38.670Z,15.14
2023-05-21T05:22:38.659Z,15.08
2023-05-21T05:23:38.668Z,15.15
2023-05-21T05:24:38.654Z,15.29
2023-05-21T05:25:38.887Z,15.35
2023-05-21T05:26:38.632Z,15.33
2023-05-21T05:27:38.787Z,15.47
2023-05-21T05:28:39.592Z,15.55
2023-05-21T05:29:38.610Z,15.41
2023-05-21T05:30:38.621Z,15.59
2023-05-21T05:31:38.550Z,15.59
2023-05-21T05:32:38.575Z,15.69
2023-05-21T05:33:38.553Z,15.69
2023-05-21T05:34:38.551Z,15.67
2023-05-21T05:35:38.606Z,15.72
2023-05-21T05:36:38.507Z,15.69
2023-05-21T05:37:38.607Z,15.63
2023-05-21T05:38:38.496Z,15.65
2023-05-21T05:39:38.461Z,15.66
2023-05-21T05:40:38.457Z,15.70
2023-05-21T05:41:38.476Z,15.85
2023-05-21T05:42:38.458Z,16.06
2023-05-21T05:43:38.420Z,16.09
2023-05-21T05:44:38.437Z,16.09
2023-05-21T05:45:38.769Z,16.26
2023-05-21T05:46:38.580Z,16.37
2023-05-21T05:47:38.423Z,16.58
2023-05-21T05:48:38.376Z,16.43
2023-05-21T05:49:38.349Z,16.55
2023-05-21T05:50:38.355Z,16.59
2023-05-21T05:51:38.357Z,16.61
2023-05-21T05:52:38.312Z,16.65
2023-05-21T05:53:38.322Z,16.68
2023-05-21T05:54:38.314Z,16.61
2023-05-21T05:55:38.691Z,16.65
2023-05-21T05:56:38.266Z,16.55
2023-05-21T05:57:38.311Z,16.49
2023-05-21T05:58:38.262Z,16.16
2023-05-21T05:59:38.237Z,16.00
2023-05-21T06:00:38.265Z,15.98
2023-05-21T06:01:38.210Z,15.87
2023-05-21T06:02:38.254Z,15.92
2023-05-21T06:03:38.360Z,16.05
2023-05-21T06:04:38.218Z,16.02
2023-05-21T06:05:38.394Z,15.94
2023-05-21T06:06:38.167Z,15.96
2023-05-21T06:07:38.173Z,15.99
2023-05-21T06:08:38.426Z,16.10
2023-05-21T06:09:38.132Z,16.25
2023-05-21T06:10:38.155Z,16.17
2023-05-21T06:11:38.145Z,16.18
2023-05-21T06:12:38.123Z,16.10
2023-05-21T06:13:38.090Z,16.09
2023-05-21T06:14:38.094Z,16.21
2023-05-21T06:15:38.350Z,16.13
2023-05-21T06:16:38.181Z,16.29
2023-05-21T06:17:38.094Z,16.26
2023-05-21T06:18:38.064Z,16.10
2023-05-21T06:19:38.012Z,16.05
2023-05-21T06:20:38.019Z,16.18
2023-05-21T06:21:38.039Z,16.22
2023-05-21T06:22:37.992Z,16.25
2023-05-21T06:23:37.984Z,16.21
2023-05-21T06:24:37.992Z,16.34
2023-05-21T06:25:38.236Z,16.46
2023-05-21T06:26:37.973Z,16.32
2023-05-21T06:27:37.975Z,16.47
2023-05-21T06:28:37.965Z,16.59
2023-05-21T06:29:37.931Z,16.64
2023-05-21T06:30:37.898Z,16.64
2023-05-21T06:31:37.927Z,16.68
2023-05-21T06:32:38.093Z,16.61
2023-05-21T06:33:38.034Z,16.77
2023-05-21T06:34:37.873Z,16.76
2023-05-21T06:35:38.030Z,16.83
2023-05-21T06:36:37.861Z,16.69
2023-05-21T06:37:37.869Z,16.72
2023-05-21T06:38:37.854Z,16.72
2023-05-21T06:39:37.795Z,16.58
2023-05-21T06:40:37.820Z,16.72
2023-05-21T06:41:37.801Z,16.72
2023-05-21T06:42:37.798Z,16.74
2023-05-21T06:43:37.763Z,16.84
2023-05-21T06:44:37.770Z,16.87
2023-05-21T06:45:37.985Z,17.04
2023-05-21T06:46:37.739Z,17.07
2023-05-21T06:47:37.767Z,17.22
2023-05-21T06:48:37.728Z,17.24
2023-05-21T06:49:37.715Z,17.24
2023-05-21T06:50:37.687Z,17.50
2023-05-21T06:51:38.705Z,17.39
2023-05-21T06:52:37.697Z,17.46
2023-05-21T06:53:37.643Z,17.72
2023-05-21T06:54:37.669Z,17.76
2023-05-21T06:55:37.915Z,17.90
2023-05-21T06:56:37.604Z,18.09
2023-05-21T06:57:37.820Z,17.91
2023-05-21T06:58:37.639Z,18.11
2023-05-21T06:59:37.601Z,18.24
2023-05-21T07:00:37.600Z,18.16
2023-05-21T07:01:37.644Z,18.28
2023-05-21T07:02:37.655Z,18.30
2023-05-21T07:03:37.602Z,18.27
2023-05-21T07:04:37.563Z,18.02
2023-05-21T07:05:37.956Z,17.97
2023-05-21T07:06:37.536Z,18.02
2023-05-21T07:07:37.540Z,17.98
2023-05-21T07:08:37.529Z,17.95
2023-05-21T07:09:37.475Z,17.90
2023-05-21T07:10:37.488Z,18.05
2023-05-21T07:11:37.501Z,18.16
2023-05-21T07:12:37.454Z,18.33
2023-05-21T07:13:37.462Z,18.52
2023-05-21T07:14:37.429Z,18.57
2023-05-21T07:15:37.588Z,18.51
2023-05-21T07:16:37.507Z,18.63
2023-05-21T07:17:37.405Z,18.63
2023-05-21T07:18:37.410Z,18.70
2023-05-21T07:19:37.395Z,18.63
2023-05-21T07:20:37.347Z,18.74
2023-05-21T07:21:37.374Z,18.81
2023-05-21T07:22:37.357Z,18.97
2023-05-21T07:23:37.339Z,19.05
2023-05-21T07:24:37.338Z,19.04
2023-05-21T07:25:37.515Z,19.22
2023-05-21T07:26:37.305Z,18.96
2023-05-21T07:27:37.291Z,19.05
2023-05-21T07:28:37.297Z,19.15
2023-05-21T07:29:37.263Z,19.09
2023-05-21T07:30:37.263Z,18.97
2023-05-21T07:31:37.336Z,18.97
2023-05-21T07:32:37.305Z,18.74
2023-05-21T07:33:37.239Z,18.81
2023-05-21T07:34:37.230Z,18.88
2023-05-21T07:35:37.455Z,19.09
2023-05-21T07:36:37.189Z,19.24
2023-05-21T07:37:37.251Z,19.41
2023-05-21T07:38:37.199Z,19.48
2023-05-21T07:39:37.154Z,19.60
2023-05-21T07:40:37.158Z,19.77
2023-05-21T07:41:37.171Z,19.87
2023-05-21T07:42:37.151Z,19.81
2023-05-21T07:43:37.124Z,19.71
2023-05-21T07:44:37.128Z,19.74
2023-05-21T07:45:37.273Z,19.71
2023-05-21T07:46:37.172Z,19.87
2023-05-21T07:47:37.157Z,19.57
2023-05-21T07:48:37.081Z,19.62
2023-05-21T07:49:37.117Z,19.82
2023-05-21T07:50:37.064Z,19.79
2023-05-21T07:51:37.041Z,19.85
2023-05-21T07:52:37.093Z,19.62
2023-05-21T07:53:37.013Z,19.39
2023-05-21T07:54:37.030Z,19.35
2023-05-21T07:55:37.265Z,19.44
2023-05-21T07:56:36.998Z,19.39
2023-05-21T07:57:36.966Z,19.53
2023-05-21T07:58:36.994Z,19.60
2023-05-21T07:59:36.982Z,19.84
2023-05-21T08:00:36.936Z,20.10
2023-05-21T08:01:36.971Z,20.33
2023-05-21T08:02:36.958Z,20.68
2023-05-21T08:03:37.021Z,20.98
2023-05-21T08:04:38.621Z,20.88
2023-05-21T08:05:37.170Z,20.93
2023-05-21T08:06:36.891Z,20.96
2023-05-21T08:07:36.857Z,20.93
2023-05-21T08:08:36.871Z,20.80
2023-05-21T08:09:36.860Z,20.74
2023-05-21T08:10:36.854Z,20.70
2023-05-21T08:11:36.850Z,20.74
2023-05-21T08:12:36.841Z,20.70
2023-05-21T08:13:36.790Z,20.85
2023-05-21T08:14:36.792Z,20.75
2023-05-21T08:15:37.072Z,20.73
2023-05-21T08:16:36.811Z,20.34
2023-05-21T08:17:36.767Z,20.24
2023-05-21T08:18:36.745Z,20.24
2023-05-21T08:19:36.767Z,20.40
2023-05-21T08:20:36.755Z,20.24
2023-05-21T08:21:36.686Z,20.12
2023-05-21T08:22:37.699Z,19.99
2023-05-21T08:23:36.710Z,19.82
2023-05-21T08:24:36.704Z,19.77
2023-05-21T08:25:37.101Z,19.63
2023-05-21T08:26:36.686Z,19.62
2023-05-21T08:27:36.637Z,19.59
2023-05-21T08:28:37.632Z,19.48
2023-05-21T08:29:36.663Z,19.52
2023-05-21T08:30:36.644Z,19.30
2023-05-21T08:31:36.658Z,19.48
2023-05-21T08:32:36.636Z,19.71
2023-05-21T08:33:36.591Z,19.78
2023-05-21T08:34:37.589Z,19.66
2023-05-21T08:35:36.762Z,19.60
2023-05-21T08:36:36.568Z,19.64
2023-05-21T08:37:36.543Z,19.74
2023-05-21T08:38:36.539Z,20.03
2023-05-21T08:39:36.571Z,19.99
2023-05-21T08:40:36.523Z,20.02
2023-05-21T08:41:36.522Z,20.10
2023-05-21T08:42:37.509Z,20.08
2023-05-21T08:43:37.502Z,20.03
2023-05-21T08:44:36.475Z,20.22
2023-05-21T08:45:36.668Z,20.04
2023-05-21T08:46:36.480Z,19.99
2023-05-21T08:47:36.463Z,19.90
2023-05-21T08:48:36.412Z,20.02
2023-05-21T08:49:36.470Z,19.99
2023-05-21T08:50:36.395Z,19.85
2023-05-21T08:51:36.399Z,19.92
2023-05-21T08:52:36.400Z,20.00
2023-05-21T08:53:36.352Z,19.99
2023-05-21T08:54:36.349Z,20.03
2023-05-21T08:55:36.593Z,19.67
2023-05-21T08:56:36.302Z,19.59
2023-05-21T08:57:36.356Z,19.44
2023-05-21T08:58:36.324Z,19.52
2023-05-21T08:59:36.296Z,19.55
2023-05-21T09:00:36.267Z,19.60
2023-05-21T09:01:36.304Z,19.60
2023-05-21T09:02:36.323Z,19.74
2023-05-21T09:03:36.253Z,19.79
2023-05-21T09:04:36.362Z,19.85
2023-05-21T09:05:36.381Z,20.07
2023-05-21T09:06:36.230Z,20.37
2023-05-21T09:07:36.224Z,20.68
2023-05-21T09:08:36.190Z,20.82
2023-05-21T09:09:36.236Z,20.70
2023-05-21T09:10:36.166Z,20.64
2023-05-21T09:11:36.173Z,20.78
2023-05-21T09:12:36.132Z,20.67
2023-05-21T09:13:38.269Z,20.68
2023-05-21T09:14:37.151Z,20.59
2023-05-21T09:15:36.292Z,20.37
2023-05-21T09:16:36.134Z,20.56
2023-05-21T09:17:36.173Z,20.74
2023-05-21T09:18:36.080Z,20.66
2023-05-21T09:19:36.136Z,20.68
2023-05-21T09:20:36.060Z,20.82
2023-05-21T09:21:36.057Z,21.05
2023-05-21T09:22:36.061Z,20.85
2023-05-21T09:23:36.018Z,20.71
2023-05-21T09:24:36.600Z,20.68
2023-05-21T09:25:37.170Z,20.67
2023-05-21T09:26:35.983Z,20.56
2023-05-21T09:27:35.953Z,20.58
2023-05-21T09:28:35.999Z,20.70
2023-05-21T09:29:35.940Z,20.80
2023-05-21T09:30:36.524Z,20.64
2023-05-21T09:31:37.067Z,20.64
2023-05-21T09:32:35.969Z,20.53
2023-05-21T09:33:35.905Z,20.49
2023-05-21T09:34:35.894Z,20.37
2023-05-21T09:35:36.892Z,20.36
2023-05-21T09:36:35.855Z,20.33
2023-05-21T09:37:35.899Z,20.32
2023-05-21T09:38:35.865Z,20.12
2023-05-21T09:39:35.822Z,20.30
2023-05-21T09:40:36.122Z,20.59
2023-05-21T09:41:35.930Z,20.67
2023-05-21T09:42:35.813Z,20.83
2023-05-21T09:43:35.797Z,20.98
2023-05-21T09:44:35.834Z,21.08
2023-05-21T09:45:35.933Z,20.89
2023-05-21T09:46:35.811Z,21.01
2023-05-21T09:47:35.792Z,21.19
2023-05-21T09:48:35.758Z,21.30
2023-05-21T09:49:35.726Z,21.19
2023-05-21T09:50:35.853Z,21.03
2023-05-21T09:51:35.741Z,21.11
2023-05-21T09:52:35.723Z,21.04
2023-05-21T09:53:35.701Z,21.00
2023-05-21T09:54:35.687Z,21.10
2023-05-21T09:55:35.692Z,21.15
2023-05-21T09:56:35.678Z,21.20
2023-05-21T09:57:35.649Z,21.35
2023-05-21T09:58:35.647Z,21.50
2023-05-21T09:59:35.653Z,21.60
2023-05-21T10:00:35.800Z,21.70
2023-05-21T10:02:07.625Z,21.53
2023-05-21T10:02:35.639Z,21.80
2023-05-21T10:03:35.592Z,21.97
2023-05-21T10:04:35.678Z,22.04
2023-05-21T10:05:35.590Z,22.23
2023-05-21T10:06:35.578Z,22.19
2023-05-21T10:07:35.583Z,22.08
2023-05-21T10:08:35.537Z,21.88
2023-05-21T10:09:35.558Z,21.97
2023-05-21T10:10:35.711Z,22.15
2023-05-21T10:11:35.514Z,22.22
2023-05-21T10:12:35.481Z,22.22
2023-05-21T10:13:35.501Z,22.15
2023-05-21T10:14:35.507Z,22.49
2023-05-21T10:15:35.464Z,22.67
2023-05-21T10:16:35.487Z,22.84
2023-05-21T10:17:35.512Z,22.65
2023-05-21T10:18:35.426Z,22.67
2023-05-21T10:19:35.501Z,22.78
2023-05-21T10:20:35.623Z,22.93
2023-05-21T10:21:35.417Z,22.78
2023-05-21T10:22:35.396Z,22.52
2023-05-21T10:23:35.428Z,22.47
2023-05-21T10:24:35.383Z,22.62
2023-05-21T10:25:35.354Z,22.56
2023-05-21T10:26:35.381Z,22.68
2023-05-21T10:27:35.357Z,22.95
2023-05-21T10:28:35.341Z,23.20
2023-05-21T10:29:35.327Z,23.33
2023-05-21T10:30:35.504Z,23.56
2023-05-21T10:31:35.308Z,23.79
2023-05-21T10:32:35.384Z,23.82
2023-05-21T10:33:35.376Z,23.84
2023-05-21T10:34:35.269Z,23.95
2023-05-21T10:35:35.515Z,23.76
2023-05-21T10:36:35.248Z,23.51
2023-05-21T10:37:35.245Z,23.32
2023-05-21T10:38:35.218Z,23.64
2023-05-21T10:39:35.198Z,23.26
2023-05-21T10:40:35.361Z,23.39
2023-05-21T10:41:35.243Z,23.63
2023-05-21T10:42:35.180Z,24.10
2023-05-21T10:43:35.186Z,24.25
2023-05-21T10:44:35.190Z,23.92
2023-05-21T10:45:35.164Z,23.95
2023-05-21T10:46:35.161Z,24.34
2023-05-21T10:47:35.224Z,24.53
2023-05-21T10:48:35.127Z,24.43
2023-05-21T10:49:35.125Z,24.77
2023-05-21T10:50:35.476Z,24.69
2023-05-21T10:51:35.094Z,24.89
2023-05-21T10:52:35.093Z,24.78
2023-05-21T10:53:35.104Z,24.86
2023-05-21T10:54:35.083Z,25.12
2023-05-21T10:55:35.045Z,25.30
2023-05-21T10:56:35.087Z,25.63
2023-05-21T10:57:35.037Z,25.77
2023-05-21T10:58:35.011Z,25.91
2023-05-21T10:59:35.011Z,25.86
2023-05-21T11:00:35.176Z,25.74
2023-05-21T11:01:35.016Z,25.63
2023-05-21T11:02:35.111Z,25.56
2023-05-21T11:03:37.417Z,25.43
2023-05-21T11:04:35.996Z,25.36
2023-05-21T11:05:34.949Z,25.43
2023-05-21T11:06:34.928Z,25.46
2023-05-21T11:07:34.960Z,25.26
2023-05-21T11:08:34.938Z,25.22
2023-05-21T11:09:34.895Z,25.33
2023-05-21T11:10:35.083Z,25.07
2023-05-21T11:11:34.917Z,25.18
2023-05-21T11:12:34.909Z,24.89
2023-05-21T11:13:34.867Z,24.92
2023-05-21T11:14:34.904Z,24.97
2023-05-21T11:15:35.912Z,24.97
2023-05-21T11:16:34.897Z,24.65
2023-05-21T11:17:34.869Z,24.47
2023-05-21T11:18:34.927Z,24.26
2023-05-21T11:19:34.858Z,24.41
2023-05-21T11:20:35.022Z,24.59
2023-05-21T11:21:34.773Z,24.78
2023-05-21T11:22:34.806Z,25.01
2023-05-21T11:23:34.783Z,25.24
2023-05-21T11:24:34.762Z,25.21
2023-05-21T11:25:34.767Z,25.14
2023-05-21T11:26:34.774Z,24.84
2023-05-21T11:27:34.759Z,24.58
2023-05-21T11:28:34.756Z,24.46
2023-05-21T11:29:34.709Z,24.41
2023-05-21T11:30:35.949Z,24.32
2023-05-21T11:31:35.754Z,24.32
2023-05-21T11:32:34.693Z,24.55
2023-05-21T11:33:34.661Z,24.79
2023-05-21T11:34:34.643Z,25.09
2023-05-21T11:35:34.668Z,25.33
2023-05-21T11:36:36.094Z,25.88
2023-05-21T11:37:35.630Z,26.23
2023-05-21T11:38:34.657Z,26.31
2023-05-21T11:39:34.605Z,26.59
2023-05-21T11:40:34.861Z,26.44
2023-05-21T11:41:34.573Z,26.34
2023-05-21T11:42:34.577Z,26.56
2023-05-21T11:43:35.568Z,26.37
2023-05-21T11:44:34.596Z,26.37
2023-05-21T11:45:34.548Z,26.52
2023-05-21T11:46:34.607Z,26.52
2023-05-21T11:47:34.602Z,26.39
2023-05-21T11:48:34.546Z,26.33
2023-05-21T11:49:34.582Z,26.23
2023-05-21T11:50:34.648Z,26.18
2023-05-21T11:51:34.508Z,26.37
2023-05-21T11:52:34.468Z,26.23
2023-05-21T11:53:34.461Z,26.31
2023-05-21T11:54:34.473Z,26.46
2023-05-21T11:55:34.471Z,26.18
2023-05-21T11:56:34.449Z,26.10
2023-05-21T11:57:34.409Z,25.77
2023-05-21T11:58:34.418Z,25.44
2023-05-21T11:59:34.427Z,25.54
2023-05-21T12:00:34.720Z,25.99
2023-05-21T12:01:34.432Z,26.36
2023-05-21T12:02:34.414Z,26.53
2023-05-21T12:03:34.444Z,26.53
2023-05-21T12:04:34.336Z,26.82
2023-05-21T12:05:34.398Z,26.73
2023-05-21T12:06:34.330Z,26.56
2023-05-21T12:07:34.338Z,26.23
2023-05-21T12:08:34.320Z,25.99
2023-05-21T12:09:34.304Z,25.85
2023-05-21T12:10:34.482Z,25.83
2023-05-21T12:11:34.282Z,25.93
2023-05-21T12:12:50.116Z,26.39
2023-05-21T12:13:36.254Z,26.74
2023-05-21T12:14:34.245Z,26.30
2023-05-21T12:15:34.236Z,26.03
2023-05-21T12:16:34.251Z,26.03
2023-05-21T12:17:34.269Z,26.56
2023-05-21T12:18:34.215Z,26.81
2023-05-21T12:19:34.285Z,27.08
2023-05-21T12:20:34.291Z,27.10
2023-05-21T12:21:34.193Z,27.29
2023-05-21T12:22:34.217Z,27.34
2023-05-21T12:23:34.144Z,27.15
2023-05-21T12:24:34.183Z,26.79
2023-05-21T12:25:34.177Z,26.71
2023-05-21T12:26:34.108Z,27.15
2023-05-21T12:27:35.193Z,27.35
2023-05-21T12:28:35.114Z,27.38
2023-05-21T12:29:34.114Z,27.50
2023-05-21T12:30:34.164Z,27.64
2023-05-21T12:31:34.176Z,27.20
2023-05-21T12:32:34.068Z,27.28
2023-05-21T12:33:34.090Z,27.23
2023-05-21T12:34:34.031Z,27.16
2023-05-21T12:35:34.099Z,27.19
2023-05-21T12:36:34.015Z,27.28
2023-05-21T12:37:34.032Z,27.30
2023-05-21T12:38:34.001Z,27.03
2023-05-21T12:39:34.993Z,26.73
2023-05-21T12:40:34.050Z,26.81
2023-05-21T12:41:34.013Z,27.19
2023-05-21T12:42:33.967Z,27.60
2023-05-21T12:43:33.976Z,27.68
2023-05-21T12:44:35.357Z,27.95
2023-05-21T12:45:33.940Z,28.31
2023-05-21T12:46:34.062Z,28.55
2023-05-21T12:47:33.949Z,28.49
2023-05-21T12:48:33.908Z,28.62
2023-05-21T12:49:33.934Z,28.56
2023-05-21T12:50:33.880Z,28.78
2023-05-21T12:51:33.898Z,28.80
2023-05-21T12:52:33.891Z,28.67